Terminal Aerodrome Forecast
Issued by NWS

Home | Current Version | Previous Version | Graphics & Text | Print | Product List | Glossary On
Versions: 1 2 3 4 5 6 7 8 9 10 11 12 13 14 15 16 17 18 19 20 21 22 23 24
000
FTUS43 KMPX 281434 AAA
TAFRNH
TAF AMD
KRNH 281434Z 2815/2912 19008KT P6SM SCT015 SCT035
     FM281700 15006KT 6SM -RA VCTS BKN035CB OVC050
     FM282000 03009KT P6SM VCSH SCT025 OVC050
     FM290000 36004KT P6SM SCT060=

USA.gov is the U.S. government's official web portal to all federal, state and local government web resources and services.